sensor_id;sensor_type;location;lat;lon;timestamp;P1;durP1;ratioP1;P2;durP2;ratioP2
47089;SDS011;32840;52.516;13.294;2023-04-24T00:01:10;6.85;;;6.05;;
47089;SDS011;32840;52.516;13.294;2023-04-24T00:03:57;6.88;;;5.40;;
47089;SDS011;32840;52.516;13.294;2023-04-24T00:06:43;7.13;;;5.47;;
47089;SDS011;32840;52.516;13.294;2023-04-24T00:09:28;6.30;;;5.25;;
47089;SDS011;32840;52.516;13.294;2023-04-24T00:12:14;7.72;;;5.88;;
47089;SDS011;32840;52.516;13.294;2023-04-24T00:14:59;7.18;;;5.40;;
47089;SDS011;32840;52.516;13.294;2023-04-24T00:17:45;6.63;;;5.63;;
47089;SDS011;32840;52.516;13.294;2023-04-24T00:20:30;6.32;;;5.47;;
47089;SDS011;32840;52.516;13.294;2023-04-24T00:23:17;8.15;;;5.65;;
47089;SDS011;32840;52.516;13.294;2023-04-24T00:26:01;7.65;;;5.15;;
47089;SDS011;32840;52.516;13.294;2023-04-24T00:28:46;7.47;;;6.00;;
47089;SDS011;32840;52.516;13.294;2023-04-24T00:31:31;6.57;;;5.72;;
47089;SDS011;32840;52.516;13.294;2023-04-24T00:34:20;7.97;;;5.60;;
47089;SDS011;32840;52.516;13.294;2023-04-24T00:37:05;9.75;;;5.78;;
47089;SDS011;32840;52.516;13.294;2023-04-24T00:39:50;8.57;;;6.00;;
47089;SDS011;32840;52.516;13.294;2023-04-24T00:42:35;7.47;;;6.10;;
47089;SDS011;32840;52.516;13.294;2023-04-24T00:45:20;7.13;;;5.75;;
47089;SDS011;32840;52.516;13.294;2023-04-24T00:48:08;7.40;;;5.80;;
47089;SDS011;32840;52.516;13.294;2023-04-24T00:50:53;7.15;;;5.75;;
47089;SDS011;32840;52.516;13.294;2023-04-24T00:53:38;7.13;;;5.70;;
47089;SDS011;32840;52.516;13.294;2023-04-24T00:56:23;6.55;;;5.78;;
47089;SDS011;32840;52.516;13.294;2023-04-24T00:59:08;9.20;;;5.88;;
47089;SDS011;32840;52.516;13.294;2023-04-24T01:01:55;7.43;;;5.70;;
47089;SDS011;32840;52.516;13.294;2023-04-24T01:04:42;7.40;;;5.28;;
47089;SDS011;32840;52.516;13.294;2023-04-24T01:07:27;7.65;;;5.88;;
47089;SDS011;32840;52.516;13.294;2023-04-24T01:10:13;5.95;;;5.32;;
47089;SDS011;32840;52.516;13.294;2023-04-24T01:12:58;9.73;;;6.10;;
47089;SDS011;32840;52.516;13.294;2023-04-24T01:15:44;7.18;;;5.60;;
47089;SDS011;32840;52.516;13.294;2023-04-24T01:18:30;7.95;;;6.07;;
47089;SDS011;32840;52.516;13.294;2023-04-24T01:21:15;7.50;;;6.07;;
47089;SDS011;32840;52.516;13.294;2023-04-24T01:24:04;8.82;;;5.53;;
47089;SDS011;32840;52.516;13.294;2023-04-24T01:26:49;6.38;;;5.63;;
47089;SDS011;32840;52.516;13.294;2023-04-24T01:29:34;8.45;;;5.85;;
47089;SDS011;32840;52.516;13.294;2023-04-24T01:32:19;7.47;;;6.05;;
47089;SDS011;32840;52.516;13.294;2023-04-24T01:35:04;7.22;;;6.18;;
47089;SDS011;32840;52.516;13.294;2023-04-24T01:37:49;7.63;;;6.80;;
47089;SDS011;32840;52.516;13.294;2023-04-24T01:40:34;6.93;;;6.05;;
47089;SDS011;32840;52.516;13.294;2023-04-24T01:43:19;6.95;;;6.10;;
47089;SDS011;32840;52.516;13.294;2023-04-24T01:46:05;7.70;;;6.20;;
47089;SDS011;32840;52.516;13.294;2023-04-24T01:48:50;10.07;;;6.70;;
47089;SDS011;32840;52.516;13.294;2023-04-24T01:51:36;7.82;;;6.57;;
47089;SDS011;32840;52.516;13.294;2023-04-24T01:54:20;9.07;;;6.80;;
47089;SDS011;32840;52.516;13.294;2023-04-24T01:57:05;8.57;;;6.50;;
47089;SDS011;32840;52.516;13.294;2023-04-24T01:59:51;7.10;;;6.22;;
47089;SDS011;32840;52.516;13.294;2023-04-24T02:02:36;8.35;;;6.57;;
47089;SDS011;32840;52.516;13.294;2023-04-24T02:05:21;8.63;;;6.40;;
47089;SDS011;32840;52.516;13.294;2023-04-24T02:08:06;8.18;;;6.82;;
47089;SDS011;32840;52.516;13.294;2023-04-24T02:10:51;8.27;;;6.90;;
47089;SDS011;32840;52.516;13.294;2023-04-24T02:13:36;8.88;;;6.78;;
47089;SDS011;32840;52.516;13.294;2023-04-24T02:16:20;7.10;;;6.03;;
47089;SDS011;32840;52.516;13.294;2023-04-24T02:19:05;8.18;;;6.85;;
47089;SDS011;32840;52.516;13.294;2023-04-24T02:21:50;8.18;;;7.07;;
47089;SDS011;32840;52.516;13.294;2023-04-24T02:24:38;7.90;;;7.10;;
47089;SDS011;32840;52.516;13.294;2023-04-24T02:27:23;7.82;;;6.97;;
47089;SDS011;32840;52.516;13.294;2023-04-24T02:30:09;9.02;;;6.82;;
47089;SDS011;32840;52.516;13.294;2023-04-24T02:32:56;8.70;;;6.68;;
47089;SDS011;32840;52.516;13.294;2023-04-24T02:35:43;9.15;;;7.13;;
47089;SDS011;32840;52.516;13.294;2023-04-24T02:38:29;9.63;;;6.95;;
47089;SDS011;32840;52.516;13.294;2023-04-24T02:41:13;8.20;;;7.20;;
47089;SDS011;32840;52.516;13.294;2023-04-24T02:43:58;8.68;;;6.75;;
47089;SDS011;32840;52.516;13.294;2023-04-24T02:46:43;8.38;;;7.00;;
47089;SDS011;32840;52.516;13.294;2023-04-24T02:49:28;8.07;;;6.82;;
47089;SDS011;32840;52.516;13.294;2023-04-24T02:52:16;7.57;;;6.68;;
47089;SDS011;32840;52.516;13.294;2023-04-24T02:55:00;6.60;;;5.80;;
47089;SDS011;32840;52.516;13.294;2023-04-24T02:57:46;8.07;;;6.50;;
47089;SDS011;32840;52.516;13.294;2023-04-24T03:00:31;21.42;;;12.23;;
47089;SDS011;32840;52.516;13.294;2023-04-24T03:03:16;8.82;;;7.13;;
47089;SDS011;32840;52.516;13.294;2023-04-24T03:06:02;6.93;;;5.80;;
47089;SDS011;32840;52.516;13.294;2023-04-24T03:08:46;8.68;;;7.05;;
47089;SDS011;32840;52.516;13.294;2023-04-24T03:11:31;8.25;;;6.43;;
47089;SDS011;32840;52.516;13.294;2023-04-24T03:14:18;7.72;;;6.90;;
47089;SDS011;32840;52.516;13.294;2023-04-24T03:17:04;9.25;;;6.70;;
47089;SDS011;32840;52.516;13.294;2023-04-24T03:19:50;7.05;;;6.35;;
47089;SDS011;32840;52.516;13.294;2023-04-24T03:22:35;7.93;;;7.13;;
47089;SDS011;32840;52.516;13.294;2023-04-24T03:25:21;9.57;;;6.93;;
47089;SDS011;32840;52.516;13.294;2023-04-24T03:28:06;7.85;;;6.22;;
47089;SDS011;32840;52.516;13.294;2023-04-24T03:30:51;8.60;;;6.63;;
47089;SDS011;32840;52.516;13.294;2023-04-24T03:33:36;7.07;;;6.38;;
47089;SDS011;32840;52.516;13.294;2023-04-24T03:36:21;8.20;;;6.05;;
47089;SDS011;32840;52.516;13.294;2023-04-24T03:39:06;8.65;;;6.03;;
47089;SDS011;32840;52.516;13.294;2023-04-24T03:41:51;8.25;;;6.38;;
47089;SDS011;32840;52.516;13.294;2023-04-24T03:44:35;7.13;;;6.43;;
47089;SDS011;32840;52.516;13.294;2023-04-24T03:47:20;6.78;;;6.05;;
47089;SDS011;32840;52.516;13.294;2023-04-24T03:50:06;7.95;;;7.10;;
47089;SDS011;32840;52.516;13.294;2023-04-24T03:52:52;9.75;;;7.00;;
47089;SDS011;32840;52.516;13.294;2023-04-24T03:55:38;7.90;;;6.55;;
47089;SDS011;32840;52.516;13.294;2023-04-24T03:58:23;8.25;;;6.97;;
47089;SDS011;32840;52.516;13.294;2023-04-24T04:01:08;8.52;;;6.88;;
47089;SDS011;32840;52.516;13.294;2023-04-24T04:03:53;7.53;;;6.72;;
47089;SDS011;32840;52.516;13.294;2023-04-24T04:06:38;9.68;;;6.78;;
47089;SDS011;32840;52.516;13.294;2023-04-24T04:09:22;8.82;;;6.78;;
47089;SDS011;32840;52.516;13.294;2023-04-24T04:12:07;9.23;;;7.13;;
47089;SDS011;32840;52.516;13.294;2023-04-24T04:14:52;8.55;;;7.18;;
47089;SDS011;32840;52.516;13.294;2023-04-24T04:17:37;10.73;;;6.85;;
47089;SDS011;32840;52.516;13.294;2023-04-24T04:20:22;6.97;;;6.28;;
47089;SDS011;32840;52.516;13.294;2023-04-24T04:23:09;10.00;;;6.88;;
47089;SDS011;32840;52.516;13.294;2023-04-24T04:25:54;9.82;;;6.75;;
47089;SDS011;32840;52.516;13.294;2023-04-24T04:28:40;8.27;;;6.30;;
47089;SDS011;32840;52.516;13.294;2023-04-24T04:31:25;8.77;;;6.70;;
47089;SDS011;32840;52.516;13.294;2023-04-24T04:34:10;10.20;;;6.00;;
47089;SDS011;32840;52.516;13.294;2023-04-24T04:36:57;9.43;;;6.82;;
47089;SDS011;32840;52.516;13.294;2023-04-24T04:39:45;9.13;;;6.22;;
47089;SDS011;32840;52.516;13.294;2023-04-24T04:42:30;11.32;;;6.80;;
47089;SDS011;32840;52.516;13.294;2023-04-24T04:45:16;7.43;;;6.30;;
47089;SDS011;32840;52.516;13.294;2023-04-24T04:48:01;13.77;;;6.63;;
47089;SDS011;32840;52.516;13.294;2023-04-24T04:50:47;12.70;;;6.70;;
47089;SDS011;32840;52.516;13.294;2023-04-24T04:53:32;9.63;;;6.63;;
47089;SDS011;32840;52.516;13.294;2023-04-24T04:56:17;11.70;;;6.00;;
47089;SDS011;32840;52.516;13.294;2023-04-24T04:59:02;7.40;;;6.70;;
47089;SDS011;32840;52.516;13.294;2023-04-24T05:01:47;11.00;;;6.70;;
47089;SDS011;32840;52.516;13.294;2023-04-24T05:04:32;6.90;;;6.20;;
47089;SDS011;32840;52.516;13.294;2023-04-24T05:07:17;7.53;;;6.28;;
47089;SDS011;32840;52.516;13.294;2023-04-24T05:10:02;9.88;;;6.05;;
47089;SDS011;32840;52.516;13.294;2023-04-24T05:12:47;8.20;;;6.20;;
47089;SDS011;32840;52.516;13.294;2023-04-24T05:15:33;7.32;;;5.90;;
47089;SDS011;32840;52.516;13.294;2023-04-24T05:18:19;8.15;;;6.20;;
47089;SDS011;32840;52.516;13.294;2023-04-24T05:21:04;7.38;;;5.97;;
47089;SDS011;32840;52.516;13.294;2023-04-24T05:23:53;8.15;;;6.00;;
47089;SDS011;32840;52.516;13.294;2023-04-24T05:26:52;9.98;;;5.45;;
47089;SDS011;32840;52.516;13.294;2023-04-24T05:29:37;8.60;;;5.00;;
47089;SDS011;32840;52.516;13.294;2023-04-24T05:32:22;7.82;;;5.60;;
47089;SDS011;32840;52.516;13.294;2023-04-24T05:35:07;6.18;;;4.65;;
47089;SDS011;32840;52.516;13.294;2023-04-24T05:37:53;8.63;;;5.30;;
47089;SDS011;32840;52.516;13.294;2023-04-24T05:40:39;8.20;;;5.57;;
47089;SDS011;32840;52.516;13.294;2023-04-24T05:43:24;8.25;;;5.35;;
47089;SDS011;32840;52.516;13.294;2023-04-24T05:46:09;7.95;;;4.55;;
47089;SDS011;32840;52.516;13.294;2023-04-24T05:48:54;8.85;;;4.97;;
47089;SDS011;32840;52.516;13.294;2023-04-24T05:51:39;9.80;;;5.47;;
47089;SDS011;32840;52.516;13.294;2023-04-24T05:54:25;10.32;;;3.72;;
47089;SDS011;32840;52.516;13.294;2023-04-24T05:57:09;8.05;;;3.25;;
47089;SDS011;32840;52.516;13.294;2023-04-24T05:59:54;11.73;;;3.20;;
47089;SDS011;32840;52.516;13.294;2023-04-24T06:02:39;10.00;;;4.30;;
47089;SDS011;32840;52.516;13.294;2023-04-24T06:05:24;5.45;;;3.20;;
47089;SDS011;32840;52.516;13.294;2023-04-24T06:08:09;3.97;;;2.90;;
47089;SDS011;32840;52.516;13.294;2023-04-24T06:10:55;7.20;;;2.95;;
47089;SDS011;32840;52.516;13.294;2023-04-24T06:13:41;4.47;;;2.60;;
47089;SDS011;32840;52.516;13.294;2023-04-24T06:16:26;5.32;;;2.70;;
47089;SDS011;32840;52.516;13.294;2023-04-24T06:19:11;5.28;;;2.33;;
47089;SDS011;32840;52.516;13.294;2023-04-24T06:21:57;4.20;;;2.42;;
47089;SDS011;32840;52.516;13.294;2023-04-24T06:24:42;4.95;;;2.60;;
47089;SDS011;32840;52.516;13.294;2023-04-24T06:27:27;4.45;;;2.70;;
47089;SDS011;32840;52.516;13.294;2023-04-24T06:30:12;4.40;;;2.10;;
47089;SDS011;32840;52.516;13.294;2023-04-24T06:32:57;4.07;;;2.40;;
47089;SDS011;32840;52.516;13.294;2023-04-24T06:35:43;3.53;;;2.17;;
47089;SDS011;32840;52.516;13.294;2023-04-24T06:38:28;5.75;;;2.00;;
47089;SDS011;32840;52.516;13.294;2023-04-24T06:41:13;8.20;;;2.22;;
47089;SDS011;32840;52.516;13.294;2023-04-24T06:43:58;3.30;;;1.83;;
47089;SDS011;32840;52.516;13.294;2023-04-24T06:46:44;3.65;;;1.90;;
47089;SDS011;32840;52.516;13.294;2023-04-24T06:49:29;4.07;;;1.50;;
47089;SDS011;32840;52.516;13.294;2023-04-24T06:52:14;2.92;;;1.60;;
47089;SDS011;32840;52.516;13.294;2023-04-24T06:55:00;3.83;;;1.50;;
47089;SDS011;32840;52.516;13.294;2023-04-24T06:57:48;4.50;;;1.60;;
47089;SDS011;32840;52.516;13.294;2023-04-24T07:00:33;2.78;;;1.15;;
47089;SDS011;32840;52.516;13.294;2023-04-24T07:03:18;2.25;;;1.23;;
47089;SDS011;32840;52.516;13.294;2023-04-24T07:06:04;3.55;;;1.50;;
47089;SDS011;32840;52.516;13.294;2023-04-24T07:08:49;2.63;;;1.25;;
47089;SDS011;32840;52.516;13.294;2023-04-24T07:11:35;3.80;;;1.27;;
47089;SDS011;32840;52.516;13.294;2023-04-24T07:14:23;3.40;;;1.05;;
47089;SDS011;32840;52.516;13.294;2023-04-24T07:17:08;4.90;;;0.90;;
47089;SDS011;32840;52.516;13.294;2023-04-24T07:19:54;2.42;;;1.00;;
47089;SDS011;32840;52.516;13.294;2023-04-24T07:22:39;2.40;;;0.75;;
47089;SDS011;32840;52.516;13.294;2023-04-24T07:25:24;5.57;;;1.20;;
47089;SDS011;32840;52.516;13.294;2023-04-24T07:28:08;2.78;;;1.13;;
47089;SDS011;32840;52.516;13.294;2023-04-24T07:30:57;2.30;;;1.00;;
47089;SDS011;32840;52.516;13.294;2023-04-24T07:33:42;3.42;;;0.70;;
47089;SDS011;32840;52.516;13.294;2023-04-24T07:36:27;1.83;;;0.85;;
47089;SDS011;32840;52.516;13.294;2023-04-24T07:39:12;1.83;;;1.00;;
47089;SDS011;32840;52.516;13.294;2023-04-24T07:41:57;1.20;;;0.80;;
47089;SDS011;32840;52.516;13.294;2023-04-24T07:44:45;2.10;;;1.10;;
47089;SDS011;32840;52.516;13.294;2023-04-24T07:47:32;2.17;;;0.95;;
47089;SDS011;32840;52.516;13.294;2023-04-24T07:50:17;2.25;;;1.50;;
47089;SDS011;32840;52.516;13.294;2023-04-24T07:53:02;6.40;;;2.65;;
47089;SDS011;32840;52.516;13.294;2023-04-24T07:55:46;4.38;;;1.95;;
47089;SDS011;32840;52.516;13.294;2023-04-24T07:58:31;2.55;;;0.93;;
47089;SDS011;32840;52.516;13.294;2023-04-24T08:01:16;9.88;;;5.38;;
47089;SDS011;32840;52.516;13.294;2023-04-24T08:04:01;2.70;;;0.80;;
47089;SDS011;32840;52.516;13.294;2023-04-24T08:06:47;2.55;;;0.65;;
47089;SDS011;32840;52.516;13.294;2023-04-24T08:09:33;2.20;;;0.90;;
47089;SDS011;32840;52.516;13.294;2023-04-24T08:12:18;1.88;;;1.00;;
47089;SDS011;32840;52.516;13.294;2023-04-24T08:15:04;4.20;;;1.40;;
47089;SDS011;32840;52.516;13.294;2023-04-24T08:17:49;3.47;;;0.70;;
47089;SDS011;32840;52.516;13.294;2023-04-24T08:20:35;1.48;;;0.50;;
47089;SDS011;32840;52.516;13.294;2023-04-24T08:23:21;2.28;;;0.65;;
47089;SDS011;32840;52.516;13.294;2023-04-24T08:26:06;3.80;;;0.82;;
47089;SDS011;32840;52.516;13.294;2023-04-24T08:28:51;1.35;;;0.65;;
47089;SDS011;32840;52.516;13.294;2023-04-24T08:31:36;2.80;;;0.90;;
47089;SDS011;32840;52.516;13.294;2023-04-24T08:34:21;3.40;;;2.00;;
47089;SDS011;32840;52.516;13.294;2023-04-24T08:37:07;2.58;;;0.82;;
47089;SDS011;32840;52.516;13.294;2023-04-24T08:39:52;3.15;;;0.70;;
47089;SDS011;32840;52.516;13.294;2023-04-24T08:42:37;2.53;;;0.52;;
47089;SDS011;32840;52.516;13.294;2023-04-24T08:45:24;1.83;;;0.80;;
47089;SDS011;32840;52.516;13.294;2023-04-24T08:48:09;0.88;;;0.50;;
47089;SDS011;32840;52.516;13.294;2023-04-24T08:50:53;3.50;;;0.73;;
47089;SDS011;32840;52.516;13.294;2023-04-24T08:53:39;2.00;;;0.90;;
47089;SDS011;32840;52.516;13.294;2023-04-24T08:56:25;1.23;;;0.73;;
47089;SDS011;32840;52.516;13.294;2023-04-24T08:59:11;1.92;;;0.60;;
47089;SDS011;32840;52.516;13.294;2023-04-24T09:01:57;1.15;;;0.60;;
47089;SDS011;32840;52.516;13.294;2023-04-24T09:04:42;2.05;;;1.50;;
47089;SDS011;32840;52.516;13.294;2023-04-24T09:07:28;3.38;;;1.13;;
47089;SDS011;32840;52.516;13.294;2023-04-24T09:10:16;2.33;;;1.00;;
47089;SDS011;32840;52.516;13.294;2023-04-24T09:13:01;6.40;;;5.07;;
47089;SDS011;32840;52.516;13.294;2023-04-24T09:15:46;7.97;;;5.95;;
47089;SDS011;32840;52.516;13.294;2023-04-24T09:18:32;7.93;;;2.58;;
47089;SDS011;32840;52.516;13.294;2023-04-24T09:21:22;5.60;;;0.82;;
47089;SDS011;32840;52.516;13.294;2023-04-24T09:24:07;1.45;;;0.70;;
47089;SDS011;32840;52.516;13.294;2023-04-24T09:27:06;3.08;;;0.93;;
47089;SDS011;32840;52.516;13.294;2023-04-24T09:29:55;2.20;;;0.70;;
47089;SDS011;32840;52.516;13.294;2023-04-24T09:32:40;2.25;;;0.80;;
47089;SDS011;32840;52.516;13.294;2023-04-24T09:35:26;4.15;;;2.35;;
47089;SDS011;32840;52.516;13.294;2023-04-24T09:38:11;2.92;;;1.25;;
47089;SDS011;32840;52.516;13.294;2023-04-24T09:41:04;6.03;;;3.35;;
47089;SDS011;32840;52.516;13.294;2023-04-24T09:43:55;1.98;;;1.02;;
47089;SDS011;32840;52.516;13.294;2023-04-24T09:46:41;4.45;;;1.00;;
47089;SDS011;32840;52.516;13.294;2023-04-24T09:49:27;3.22;;;0.90;;
47089;SDS011;32840;52.516;13.294;2023-04-24T09:52:13;3.53;;;1.52;;
47089;SDS011;32840;52.516;13.294;2023-04-24T09:54:59;14.23;;;9.07;;
47089;SDS011;32840;52.516;13.294;2023-04-24T09:57:48;3.92;;;1.10;;
47089;SDS011;32840;52.516;13.294;2023-04-24T10:00:38;11.88;;;5.22;;
47089;SDS011;32840;52.516;13.294;2023-04-24T10:03:25;6.22;;;3.47;;
47089;SDS011;32840;52.516;13.294;2023-04-24T10:06:13;2.85;;;1.65;;
47089;SDS011;32840;52.516;13.294;2023-04-24T10:08:59;4.80;;;1.80;;
47089;SDS011;32840;52.516;13.294;2023-04-24T10:11:44;3.08;;;1.02;;
47089;SDS011;32840;52.516;13.294;2023-04-24T10:14:31;6.97;;;2.03;;
47089;SDS011;32840;52.516;13.294;2023-04-24T10:17:16;4.95;;;1.73;;
47089;SDS011;32840;52.516;13.294;2023-04-24T10:20:01;1.58;;;0.68;;
47089;SDS011;32840;52.516;13.294;2023-04-24T10:22:47;2.35;;;0.80;;
47089;SDS011;32840;52.516;13.294;2023-04-24T10:25:37;2.67;;;0.70;;
47089;SDS011;32840;52.516;13.294;2023-04-24T10:28:22;3.92;;;2.20;;
47089;SDS011;32840;52.516;13.294;2023-04-24T10:31:08;2.63;;;1.15;;
47089;SDS011;32840;52.516;13.294;2023-04-24T10:33:56;3.58;;;1.10;;
47089;SDS011;32840;52.516;13.294;2023-04-24T10:36:43;2.28;;;0.90;;
47089;SDS011;32840;52.516;13.294;2023-04-24T10:39:34;2.05;;;0.90;;
47089;SDS011;32840;52.516;13.294;2023-04-24T10:42:21;3.70;;;1.23;;
47089;SDS011;32840;52.516;13.294;2023-04-24T10:45:17;3.30;;;1.42;;
47089;SDS011;32840;52.516;13.294;2023-04-24T10:48:06;2.28;;;0.90;;
47089;SDS011;32840;52.516;13.294;2023-04-24T10:51:01;5.50;;;1.15;;
47089;SDS011;32840;52.516;13.294;2023-04-24T10:53:49;6.35;;;1.30;;
47089;SDS011;32840;52.516;13.294;2023-04-24T10:56:35;2.78;;;1.00;;
47089;SDS011;32840;52.516;13.294;2023-04-24T10:59:27;2.63;;;0.80;;
47089;SDS011;32840;52.516;13.294;2023-04-24T11:02:19;2.17;;;1.05;;
47089;SDS011;32840;52.516;13.294;2023-04-24T11:05:22;5.22;;;0.93;;
47089;SDS011;32840;52.516;13.294;2023-04-24T11:11:20;1.60;;;0.77;;
47089;SDS011;32840;52.516;13.294;2023-04-24T11:14:21;2.20;;;0.60;;
47089;SDS011;32840;52.516;13.294;2023-04-24T11:17:09;7.38;;;4.40;;
47089;SDS011;32840;52.516;13.294;2023-04-24T11:20:17;5.80;;;1.23;;
47089;SDS011;32840;52.516;13.294;2023-04-24T11:23:03;3.58;;;1.50;;
47089;SDS011;32840;52.516;13.294;2023-04-24T11:26:09;1.48;;;0.63;;
47089;SDS011;32840;52.516;13.294;2023-04-24T11:29:06;4.13;;;1.77;;
47089;SDS011;32840;52.516;13.294;2023-04-24T11:31:53;9.95;;;2.92;;
47089;SDS011;32840;52.516;13.294;2023-04-24T11:34:38;9.27;;;4.25;;
47089;SDS011;32840;52.516;13.294;2023-04-24T11:37:24;4.65;;;1.90;;
47089;SDS011;32840;52.516;13.294;2023-04-24T11:40:11;4.80;;;1.30;;
47089;SDS011;32840;52.516;13.294;2023-04-24T11:42:59;5.85;;;2.00;;
47089;SDS011;32840;52.516;13.294;2023-04-24T11:45:47;8.23;;;3.60;;
47089;SDS011;32840;52.516;13.294;2023-04-24T11:48:35;4.30;;;1.88;;
47089;SDS011;32840;52.516;13.294;2023-04-24T11:51:24;3.42;;;1.15;;
47089;SDS011;32840;52.516;13.294;2023-04-24T11:54:10;3.22;;;1.20;;
47089;SDS011;32840;52.516;13.294;2023-04-24T11:56:57;10.48;;;1.48;;
47089;SDS011;32840;52.516;13.294;2023-04-24T11:59:41;4.63;;;1.15;;
47089;SDS011;32840;52.516;13.294;2023-04-24T12:02:27;3.33;;;0.95;;
47089;SDS011;32840;52.516;13.294;2023-04-24T12:05:24;3.40;;;1.33;;
47089;SDS011;32840;52.516;13.294;2023-04-24T12:08:10;2.25;;;1.20;;
47089;SDS011;32840;52.516;13.294;2023-04-24T12:10:59;1.88;;;0.88;;
47089;SDS011;32840;52.516;13.294;2023-04-24T12:13:47;4.45;;;1.40;;
47089;SDS011;32840;52.516;13.294;2023-04-24T12:16:32;1.77;;;0.90;;
47089;SDS011;32840;52.516;13.294;2023-04-24T12:19:21;2.00;;;1.17;;
47089;SDS011;32840;52.516;13.294;2023-04-24T12:22:06;3.13;;;1.23;;
47089;SDS011;32840;52.516;13.294;2023-04-24T12:24:55;2.17;;;0.95;;
47089;SDS011;32840;52.516;13.294;2023-04-24T12:27:40;2.90;;;0.80;;
47089;SDS011;32840;52.516;13.294;2023-04-24T12:30:28;4.20;;;1.70;;
47089;SDS011;32840;52.516;13.294;2023-04-24T12:33:18;5.45;;;2.40;;
47089;SDS011;32840;52.516;13.294;2023-04-24T12:36:05;5.13;;;1.55;;
47089;SDS011;32840;52.516;13.294;2023-04-24T12:38:52;3.05;;;1.00;;
47089;SDS011;32840;52.516;13.294;2023-04-24T12:41:37;4.63;;;1.20;;
47089;SDS011;32840;52.516;13.294;2023-04-24T12:44:29;4.85;;;2.10;;
47089;SDS011;32840;52.516;13.294;2023-04-24T12:47:19;4.63;;;1.77;;
47089;SDS011;32840;52.516;13.294;2023-04-24T12:50:04;1.83;;;0.80;;
47089;SDS011;32840;52.516;13.294;2023-04-24T12:52:50;1.90;;;0.70;;
47089;SDS011;32840;52.516;13.294;2023-04-24T12:55:35;1.92;;;0.90;;
47089;SDS011;32840;52.516;13.294;2023-04-24T12:58:21;2.35;;;1.70;;
47089;SDS011;32840;52.516;13.294;2023-04-24T13:01:09;3.67;;;1.45;;
47089;SDS011;32840;52.516;13.294;2023-04-24T13:03:54;4.88;;;1.38;;
47089;SDS011;32840;52.516;13.294;2023-04-24T13:06:39;4.47;;;1.20;;
47089;SDS011;32840;52.516;13.294;2023-04-24T13:09:24;1.98;;;1.02;;
47089;SDS011;32840;52.516;13.294;2023-04-24T13:12:09;3.15;;;1.27;;
47089;SDS011;32840;52.516;13.294;2023-04-24T13:14:54;3.80;;;1.10;;
47089;SDS011;32840;52.516;13.294;2023-04-24T13:17:41;1.45;;;0.80;;
47089;SDS011;32840;52.516;13.294;2023-04-24T13:20:25;1.45;;;1.00;;
47089;SDS011;32840;52.516;13.294;2023-04-24T13:23:10;3.70;;;1.20;;
47089;SDS011;32840;52.516;13.294;2023-04-24T13:25:55;3.03;;;1.42;;
47089;SDS011;32840;52.516;13.294;2023-04-24T13:28:42;2.20;;;0.80;;
47089;SDS011;32840;52.516;13.294;2023-04-24T13:31:29;14.23;;;6.57;;
47089;SDS011;32840;52.516;13.294;2023-04-24T13:34:15;14.75;;;11.35;;
47089;SDS011;32840;52.516;13.294;2023-04-24T13:37:01;3.63;;;1.02;;
47089;SDS011;32840;52.516;13.294;2023-04-24T13:39:47;4.55;;;1.15;;
47089;SDS011;32840;52.516;13.294;2023-04-24T13:42:32;2.90;;;1.08;;
47089;SDS011;32840;52.516;13.294;2023-04-24T13:45:18;2.75;;;1.20;;
47089;SDS011;32840;52.516;13.294;2023-04-24T13:48:04;1.95;;;0.98;;
47089;SDS011;32840;52.516;13.294;2023-04-24T13:50:49;2.13;;;0.85;;
47089;SDS011;32840;52.516;13.294;2023-04-24T13:53:38;4.43;;;2.30;;
47089;SDS011;32840;52.516;13.294;2023-04-24T13:56:26;2.67;;;0.80;;
47089;SDS011;32840;52.516;13.294;2023-04-24T13:59:13;1.73;;;1.23;;
47089;SDS011;32840;52.516;13.294;2023-04-24T14:01:59;2.00;;;0.85;;
47089;SDS011;32840;52.516;13.294;2023-04-24T14:04:46;4.20;;;1.02;;
47089;SDS011;32840;52.516;13.294;2023-04-24T14:07:32;2.63;;;1.27;;
47089;SDS011;32840;52.516;13.294;2023-04-24T14:10:17;1.65;;;0.77;;
47089;SDS011;32840;52.516;13.294;2023-04-24T14:13:03;2.10;;;0.60;;
47089;SDS011;32840;52.516;13.294;2023-04-24T14:15:48;5.95;;;1.15;;
47089;SDS011;32840;52.516;13.294;2023-04-24T14:18:33;3.20;;;1.00;;
47089;SDS011;32840;52.516;13.294;2023-04-24T14:21:20;2.03;;;0.80;;
47089;SDS011;32840;52.516;13.294;2023-04-24T14:24:05;1.80;;;0.80;;
47089;SDS011;32840;52.516;13.294;2023-04-24T14:26:50;3.25;;;1.05;;
47089;SDS011;32840;52.516;13.294;2023-04-24T14:29:35;3.13;;;0.80;;
47089;SDS011;32840;52.516;13.294;2023-04-24T14:32:20;1.80;;;1.05;;
47089;SDS011;32840;52.516;13.294;2023-04-24T14:35:06;5.55;;;1.63;;
47089;SDS011;32840;52.516;13.294;2023-04-24T14:37:51;6.35;;;1.10;;
47089;SDS011;32840;52.516;13.294;2023-04-24T14:40:36;2.92;;;0.88;;
47089;SDS011;32840;52.516;13.294;2023-04-24T14:43:21;4.30;;;1.30;;
47089;SDS011;32840;52.516;13.294;2023-04-24T14:46:06;2.55;;;0.88;;
47089;SDS011;32840;52.516;13.294;2023-04-24T14:48:51;2.35;;;0.90;;
47089;SDS011;32840;52.516;13.294;2023-04-24T14:51:36;5.32;;;1.80;;
47089;SDS011;32840;52.516;13.294;2023-04-24T14:54:22;3.50;;;1.45;;
47089;SDS011;32840;52.516;13.294;2023-04-24T14:57:08;2.25;;;0.93;;
47089;SDS011;32840;52.516;13.294;2023-04-24T14:59:52;5.57;;;1.90;;
47089;SDS011;32840;52.516;13.294;2023-04-24T15:02:37;3.78;;;1.13;;
47089;SDS011;32840;52.516;13.294;2023-04-24T15:05:26;2.55;;;1.30;;
47089;SDS011;32840;52.516;13.294;2023-04-24T15:08:10;2.13;;;1.25;;
47089;SDS011;32840;52.516;13.294;2023-04-24T15:10:57;5.07;;;1.77;;
47089;SDS011;32840;52.516;13.294;2023-04-24T15:13:42;2.58;;;1.20;;
47089;SDS011;32840;52.516;13.294;2023-04-24T15:16:31;10.10;;;2.42;;
47089;SDS011;32840;52.516;13.294;2023-04-24T15:19:16;29.60;;;4.07;;
47089;SDS011;32840;52.516;13.294;2023-04-24T15:22:02;17.45;;;3.20;;
47089;SDS011;32840;52.516;13.294;2023-04-24T15:24:48;14.23;;;2.05;;
47089;SDS011;32840;52.516;13.294;2023-04-24T15:27:42;8.65;;;1.83;;
47089;SDS011;32840;52.516;13.294;2023-04-24T15:30:27;12.80;;;2.85;;
47089;SDS011;32840;52.516;13.294;2023-04-24T15:33:13;14.30;;;2.17;;
47089;SDS011;32840;52.516;13.294;2023-04-24T15:36:01;8.00;;;1.48;;
47089;SDS011;32840;52.516;13.294;2023-04-24T15:38:47;3.92;;;1.20;;
47089;SDS011;32840;52.516;13.294;2023-04-24T15:41:32;6.30;;;1.45;;
47089;SDS011;32840;52.516;13.294;2023-04-24T15:44:17;12.10;;;2.45;;
47089;SDS011;32840;52.516;13.294;2023-04-24T15:47:02;3.63;;;1.30;;
47089;SDS011;32840;52.516;13.294;2023-04-24T15:49:48;2.80;;;1.23;;
47089;SDS011;32840;52.516;13.294;2023-04-24T15:52:33;4.88;;;2.05;;
47089;SDS011;32840;52.516;13.294;2023-04-24T15:55:17;3.03;;;1.30;;
47089;SDS011;32840;52.516;13.294;2023-04-24T15:58:02;9.57;;;1.40;;
47089;SDS011;32840;52.516;13.294;2023-04-24T16:00:48;2.80;;;1.50;;
47089;SDS011;32840;52.516;13.294;2023-04-24T16:03:34;4.47;;;1.50;;
47089;SDS011;32840;52.516;13.294;2023-04-24T16:06:19;2.92;;;1.48;;
47089;SDS011;32840;52.516;13.294;2023-04-24T16:09:04;6.10;;;1.60;;
47089;SDS011;32840;52.516;13.294;2023-04-24T16:11:49;6.07;;;1.35;;
47089;SDS011;32840;52.516;13.294;2023-04-24T16:14:33;5.63;;;1.48;;
47089;SDS011;32840;52.516;13.294;2023-04-24T16:17:18;6.32;;;2.92;;
47089;SDS011;32840;52.516;13.294;2023-04-24T16:20:03;2.13;;;1.08;;
47089;SDS011;32840;52.516;13.294;2023-04-24T16:22:49;4.00;;;1.17;;
47089;SDS011;32840;52.516;13.294;2023-04-24T16:25:34;5.75;;;1.35;;
47089;SDS011;32840;52.516;13.294;2023-04-24T16:28:18;2.15;;;1.00;;